YPPH/PER METAR and TAF weather

Enter ICAO airport designator
Station Type Date Time Source
YPPH METAR 2021/01/20 21:00 UTC NOAA

YPPH 202100Z 19008KT CAVOK 24/15 Q1010


Station Type Date Time Source
YPPH Decoded METAR 2021/01/20 21:00 UTC NOAA

Belmont Perth Airport , Australia (YPPH) 31-56S 115-57E 29M
Jan 20, 2021 - 04:00 PM EST / 2021.01.20 2100 UTC
Wind: from the S (190 degrees) at 9 MPH (8 KT):0
Visibility: greater than 7 mile(s):0
Temperature: 75 F (24 C)
Dew Point: 59 F (15 C)
Relative Humidity: 57%
Pressure (altimeter): 29.83 in. Hg (1010 hPa)
ob: YPPH 202100Z 19008KT CAVOK 24/15 Q1010
cycle: 21

Station Type Date Time Source
YPPH TAF 2021/01/20 21:00 UTC NOAA

TAF YPPH 201952Z 2021/2200 18008KT CAVOK
FM210400 24014KT CAVOK
FM211500 12014KT CAVOK
FM212000 09010KT CAVOK

Example: see airport list